Aeroporto :
LOGIN :

Iscrizione | Disclaimer

   EN    FR    IT 

 










Sommario :    VFR   VFR Marginale   IFR   IFR Intensivo   IFR Molto Intensivo
Visibilità : 
Base nubi : 
>= 8 km
>= 3000ft
5 / 8 km
1000 / 3000 ft
1500m / 5 km
500 / 1000 ft
800 / 1500m
200 / 500 ft
< 800m
< 200 ft
Simboli :   Temporali  Nebbia  Neve Forte  Precipitazioni Forti  Vento > 20 kt
SIGMETs :   Varie  Temporali  Ghiacco  Turbolenza  Onda orograficha  Ceneri Vulcaniche






- Altitudine del aeroporto : 160 ft
- Codice IATA : FMO


EDDG - Münster Osnabrück Int.

ULTIMO METAR :
  • 190150Z 28003KT 9999 FEW030 BKN036 01/00 Q1030 NOSIG

METARs OBSOLETI :
  • 190120Z 26005KT 9999 FEW025 SCT034 01/M00 Q1029 NOSIG
  • 190050Z 24005KT 9999 FEW025 SCT048 01/00 Q1029 NOSIG
  • 190020Z 26005KT 9999 FEW025 BKN048 01/00 Q1029 NOSIG
  • 182350Z 26006KT 9999 FEW024 SCT047 01/00 Q1029 NOSIG
  • 182320Z 26006KT 9999 FEW030 01/00 Q1028 NOSIG

TAF TAF EDDG
Valido dal 19 a 00 ore il 20 a 00 ore UTC


182300Z 1900/1924 27006KT 9999 BKN020
BECMG 1908/1910 33008KT
BECMG 1919/1921 31003KT



MetMap, La meteo Aeronautica in un colpo d'occhio ! - Copyright ORBIFLY Dicembre 2007 - Disclaimer

ORBIFLY MET'MAP TEAM :

Programmazione e sviluppo : Alexandra Zaïnal
Concezione : Baudouin d'Aumeries
Aiuto per la programmazione : Marc-Olivier Méhu
Supporto tecnico e logistico : Manuel Goepfert
Aiuto per la traduzione : Arnaldo La Scala

Contatto : metmap@orbifly.com




FONTI E CREDITI :

   NOAA